Time;durP1;ratioP1;P1;durP2;ratioP2;P2;SDS_P1;SDS_P2;PMS_P1;PMS_P2;Temp;Humidity;BMP_temperature;BMP_pressure;BME280_temperature;BME280_humidity;BME280_pressure;Samples;Min_cycle;Max_cycle;Signal;HPM_P1;HPM_P2
2022/05/18 00:01:45;;;;;;;58.38;27.25;;;;;;;11.10;40.40;100083.33;1672777;86;20999;-55
2022/05/18 00:04:14;;;;;;;48.80;23.02;;;;;;;11.08;40.50;100080.80;1672748;86;21026;-54
2022/05/18 00:06:44;;;;;;;48.90;22.13;;;;;;;11.07;40.67;100072.25;1672783;86;21026;-56
2022/05/18 00:09:13;;;;;;;32.78;14.07;;;;;;;11.03;40.96;100076.43;1672719;86;21039;-56
2022/05/18 00:11:42;;;;;;;24.70;11.18;;;;;;;11.01;41.15;100081.28;1672758;86;20982;-55
2022/05/18 00:14:11;;;;;;;20.12;9.35;;;;;;;11.01;41.32;100081.80;1673029;86;20999;-57
2022/05/18 00:16:40;;;;;;;18.65;8.33;;;;;;;10.96;41.53;100081.06;1672757;86;21466;-55
2022/05/18 00:19:09;;;;;;;12.47;5.33;;;;;;;10.90;41.64;100087.38;1672795;86;20987;-55
2022/05/18 00:21:38;;;;;;;10.72;4.53;;;;;;;10.86;41.84;100087.47;1672726;86;21024;-55
2022/05/18 00:24:08;;;;;;;6.20;3.70;;;;;;;10.79;41.98;100093.46;1672743;86;21038;-55
2022/05/18 00:26:37;;;;;;;6.25;3.02;;;;;;;10.74;41.99;100094.08;1672751;86;20991;-54
2022/05/18 00:29:06;;;;;;;4.70;2.45;;;;;;;10.71;42.06;100087.64;1672797;86;21486;-54
2022/05/18 00:31:34;;;;;;;9.25;2.47;;;;;;;10.68;42.17;100099.55;1672962;86;21062;-53
2022/05/18 00:34:03;;;;;;;2.80;1.70;;;;;;;10.68;42.25;100096.80;1670879;86;21051;-55
2022/05/18 00:36:32;;;;;;;3.95;1.62;;;;;;;10.66;42.37;100100.27;1660452;86;21408;-54
2022/05/18 00:39:00;;;;;;;4.95;1.45;;;;;;;10.61;42.54;100095.94;1660456;86;21451;-57
2022/05/18 00:41:29;;;;;;;4.45;1.35;;;;;;;10.57;42.73;100102.88;1660574;86;21015;-55
2022/05/18 00:43:58;;;;;;;2.67;1.22;;;;;;;10.56;42.96;100101.19;1660414;86;20988;-55
2022/05/18 00:46:27;;;;;;;1.98;1.30;;;;;;;10.52;43.01;100103.48;1660484;86;21000;-55
2022/05/18 00:48:55;;;;;;;2.80;1.32;;;;;;;10.51;43.22;100102.33;1660493;86;21035;-54
2022/05/18 00:51:35;;;;;;;3.37;1.70;;;;;;;10.49;43.24;100103.90;1660544;86;20995;-56
2022/05/18 00:54:12;;;;;;;3.75;1.77;;;;;;;10.50;43.64;100111.59;1660284;86;21301;-55
2022/05/18 00:57:04;;;;;;;5.50;2.60;;;;;;;10.45;43.70;100102.09;1660412;86;21404;-54
2022/05/18 00:59:57;;;;;;;5.62;2.55;;;;;;;10.39;44.04;100102.88;1660431;86;21015;-53
2022/05/18 01:02:31;;;;;;;5.55;2.37;;;;;;;10.34;44.38;100108.13;1660495;86;21027;-54
2022/05/18 01:05:00;;;;;;;7.50;2.55;;;;;;;10.31;44.44;100116.73;1660455;86;21004;-54
2022/05/18 01:07:34;;;;;;;8.33;2.90;;;;;;;10.33;44.71;100112.43;1660405;86;21433;-56
2022/05/18 01:10:04;;;;;;;8.93;3.12;;;;;;;10.34;45.16;100108.13;1660424;86;21024;-54
2022/05/18 01:12:33;;;;;;;9.85;3.50;;;;;;;10.33;45.20;100120.12;1660473;86;21019;-55
2022/05/18 01:15:07;;;;;;;9.48;3.30;;;;;;;10.31;45.24;100114.00;1660547;86;21039;-54
2022/05/18 01:17:39;;;;;;;7.53;3.50;;;;;;;10.31;45.51;100111.79;1660414;86;21507;-55
2022/05/18 01:20:15;;;;;;;8.95;3.33;;;;;;;10.27;45.51;100115.45;1660441;86;21060;-55
2022/05/18 01:23:11;;;;;;;9.93;4.00;;;;;;;10.25;45.75;100116.70;1660591;86;21039;-54
2022/05/18 01:26:12;;;;;;;11.90;5.62;;;;;;;10.21;45.83;100120.38;1660508;86;21419;-55
2022/05/18 01:28:48;;;;;;;15.88;6.50;;;;;;;10.11;46.03;100114.39;1634943;88;21039;-55
2022/05/18 01:31:17;;;;;;;17.02;7.42;;;;;;;10.02;46.07;100123.81;1653015;86;21020;-53
2022/05/18 01:33:46;;;;;;;18.32;8.58;;;;;;;10.00;46.14;100126.75;1660444;86;21494;-55
2022/05/18 01:36:15;;;;;;;19.77;9.25;;;;;;;10.00;46.28;100123.17;1660320;86;21067;-54
2022/05/18 01:38:44;;;;;;;23.95;9.60;;;;;;;9.94;46.57;100134.91;1660396;86;20987;-55
2022/05/18 01:41:17;;;;;;;23.62;10.20;;;;;;;9.90;46.58;100129.00;1660467;86;21003;-53
2022/05/18 01:43:51;;;;;;;21.95;9.58;;;;;;;9.88;46.74;100134.34;1660442;86;20996;-54
2022/05/18 01:46:21;;;;;;;25.55;10.00;;;;;;;9.80;47.16;100139.45;1660472;86;21004;-55
2022/05/18 01:48:51;;;;;;;23.90;9.05;;;;;;;9.62;47.18;100147.27;1660463;86;20999;-55
2022/05/18 01:51:45;;;;;;;21.80;8.48;;;;;;;9.49;47.50;100146.64;1660423;86;21016;-55
2022/05/18 01:54:13;;;;;;;22.13;9.40;;;;;;;9.38;47.85;100147.16;1660616;86;21027;-53
2022/05/18 01:56:43;;;;;;;21.80;9.38;;;;;;;9.33;48.05;100146.91;1660425;86;21035;-53
2022/05/18 01:59:13;;;;;;;20.23;9.00;;;;;;;9.28;48.35;100146.13;1660559;86;21023;-53
2022/05/18 02:01:42;;;;;;;21.12;8.18;;;;;;;9.21;48.73;100147.43;1660488;86;20976;-55
2022/05/18 02:04:12;;;;;;;21.73;7.78;;;;;;;9.18;48.98;100153.29;1660392;86;21003;-58
2022/05/18 02:06:41;;;;;;;15.90;7.67;;;;;;;9.16;49.10;100150.42;1660573;86;21000;-56
2022/05/18 02:09:10;;;;;;;16.82;7.45;;;;;;;9.16;49.18;100155.37;1660434;86;20976;-55
2022/05/18 02:11:41;;;;;;;16.30;6.62;;;;;;;9.15;49.46;100156.94;1660496;86;21035;-56
2022/05/18 02:14:10;;;;;;;17.95;6.70;;;;;;;9.09;49.69;100161.25;1660374;86;21031;-56
2022/05/18 02:16:40;;;;;;;15.98;5.58;;;;;;;9.03;50.13;100155.20;1660371;86;21424;-56
2022/05/18 02:19:09;;;;;;;14.58;5.87;;;;;;;9.00;50.55;100156.95;1660507;86;21498;-55
2022/05/18 02:21:38;;;;;;;20.20;6.58;;;;;;;8.97;50.73;100156.50;1660415;86;21432;-56
2022/05/18 02:24:07;;;;;;;14.25;5.08;;;;;;;8.94;51.08;100163.20;1660444;86;21047;-53
2022/05/18 02:26:38;;;;;;;12.25;5.92;;;;;;;8.88;51.78;100169.42;1660314;86;21032;-55
2022/05/18 02:29:08;;;;;;;17.77;5.62;;;;;;;8.82;51.91;100171.56;1660621;86;21003;-54
2022/05/18 02:31:36;;;;;;;14.80;5.72;;;;;;;8.81;52.02;100165.77;1660488;86;20996;-54
2022/05/18 02:34:06;;;;;;;14.28;5.80;;;;;;;8.83;52.09;100162.33;1660390;86;21031;-56
2022/05/18 02:36:34;;;;;;;13.38;5.05;;;;;;;8.82;52.31;100164.22;1666537;86;21066;-54
2022/05/18 02:39:03;;;;;;;14.73;5.90;;;;;;;8.76;52.53;100166.87;1667335;86;21415;-54
2022/05/18 02:41:32;;;;;;;16.73;6.20;;;;;;;8.72;53.10;100175.13;1667401;86;21007;-55
2022/05/18 02:44:01;;;;;;;10.60;4.75;;;;;;;8.65;53.09;100174.19;1667336;86;20972;-54
2022/05/18 02:46:30;;;;;;;13.65;5.80;;;;;;;8.63;53.30;100167.55;1667478;86;21003;-55
2022/05/18 02:48:59;;;;;;;15.98;5.17;;;;;;;8.60;53.62;100173.91;1667441;86;20995;-55
2022/05/18 02:51:28;;;;;;;14.03;5.65;;;;;;;8.56;53.86;100170.20;1667341;86;21081;-55
2022/05/18 02:53:57;;;;;;;14.10;4.85;;;;;;;8.49;54.05;100169.27;1667417;86;21011;-56
2022/05/18 02:56:26;;;;;;;9.80;4.70;;;;;;;8.46;54.19;100179.20;1667338;86;21059;-59
2022/05/18 02:58:56;;;;;;;10.93;4.03;;;;;;;8.45;54.38;100177.52;1667493;86;21000;-55
2022/05/18 03:01:27;;;;;;;9.00;3.20;;;;;;;8.44;54.61;100180.40;1667354;86;21007;-54
2022/05/18 03:03:56;;;;;;;6.12;3.00;;;;;;;8.41;54.79;100178.89;1667309;86;20999;-56
2022/05/18 03:06:26;;;;;;;9.93;2.92;;;;;;;8.38;55.19;100186.09;1667367;86;21011;-55
2022/05/18 03:08:56;;;;;;;10.55;2.62;;;;;;;8.33;55.31;100182.20;1667478;86;20999;-56
2022/05/18 03:11:25;;;;;;;8.20;2.50;;;;;;;8.27;55.77;100186.02;1667407;86;21034;-54
2022/05/18 03:13:54;;;;;;;5.58;2.83;;;;;;;8.21;55.95;100186.77;1667386;86;21399;-54
2022/05/18 03:16:23;;;;;;;8.08;2.47;;;;;;;8.21;56.12;100192.23;1667353;86;21451;-54
2022/05/18 03:18:52;;;;;;;8.30;2.67;;;;;;;8.24;56.22;100199.20;1667369;86;21039;-54
2022/05/18 03:24:10;;;;;;;6.05;2.15;;;;;;;8.26;56.37;100196.61;1667315;86;20991;-55
2022/05/18 03:26:40;;;;;;;7.28;2.20;;;;;;;8.26;56.59;100197.97;1641069;86;21003;-57
2022/05/18 03:29:08;;;;;;;6.55;2.50;;;;;;;8.28;56.69;100193.69;1667338;86;20991;-54
2022/05/18 03:31:39;;;;;;;5.42;2.10;;;;;;;8.33;56.87;100199.95;1667378;86;21003;-55
2022/05/18 03:34:08;;;;;;;7.30;2.33;;;;;;;8.34;57.01;100198.95;1667380;86;21431;-54
2022/05/18 03:36:38;;;;;;;6.08;2.08;;;;;;;8.34;57.27;100197.06;1671492;84;21450;-56
2022/05/18 03:39:07;;;;;;;6.28;2.20;;;;;;;8.37;57.28;100203.51;1672773;86;20991;-55
2022/05/18 03:41:36;;;;;;;5.35;2.30;;;;;;;8.40;57.28;100200.92;1672699;86;21014;-56
2022/05/18 03:44:06;;;;;;;4.62;2.27;;;;;;;8.47;57.21;100194.55;1672735;86;21466;-56
2022/05/18 03:46:36;;;;;;;6.53;1.90;;;;;;;8.54;57.36;100202.83;1672900;86;21396;-54
2022/05/18 03:49:07;;;;;;;6.75;2.30;;;;;;;8.55;57.33;100207.25;1672753;86;21431;-55
2022/05/18 03:51:37;;;;;;;5.58;1.87;;;;;;;8.55;57.44;100205.89;1672803;86;20997;-54
2022/05/18 03:54:06;;;;;;;6.08;1.85;;;;;;;8.55;57.68;100206.73;1672750;86;21043;-55
2022/05/18 03:56:35;;;;;;;6.17;2.40;;;;;;;8.55;57.70;100199.91;1646186;86;21478;-54
2022/05/18 03:59:04;;;;;;;7.40;2.10;;;;;;;8.57;57.82;100212.86;1672862;86;21007;-55
2022/05/18 04:01:33;;;;;;;6.87;2.00;;;;;;;8.57;57.98;100211.49;1672721;86;21022;-55
2022/05/18 04:04:02;;;;;;;5.95;2.20;;;;;;;8.62;58.14;100218.27;1672784;86;20999;-53
2022/05/18 04:06:30;;;;;;;5.55;2.00;;;;;;;8.61;58.08;100220.16;1672719;86;20996;-55
2022/05/18 04:08:59;;;;;;;4.35;1.95;;;;;;;8.62;58.15;100218.27;1672888;86;20987;-55
2022/05/18 04:11:28;;;;;;;5.55;2.08;;;;;;;8.60;58.73;100223.07;1672761;86;21134;-56
2022/05/18 04:13:56;;;;;;;5.83;2.33;;;;;;;8.54;58.69;100223.31;1672785;86;21019;-55
2022/05/18 04:16:25;;;;;;;6.08;2.22;;;;;;;8.53;58.86;100224.34;1672707;86;21023;-55
2022/05/18 04:18:54;;;;;;;5.92;2.50;;;;;;;8.58;59.17;100228.72;1672818;86;21063;-56
2022/05/18 04:21:22;;;;;;;5.33;2.10;;;;;;;8.60;59.09;100221.19;1645637;86;21093;-55
2022/05/18 04:23:51;;;;;;;4.75;1.95;;;;;;;8.63;59.19;100229.52;1672852;86;21011;-55
2022/05/18 04:26:21;;;;;;;6.17;2.08;;;;;;;8.65;59.27;100225.56;1672738;86;20995;-57
2022/05/18 04:28:50;;;;;;;8.63;2.20;;;;;;;8.67;59.23;100231.68;1672768;86;21002;-55
2022/05/18 04:31:18;;;;;;;5.67;2.00;;;;;;;8.72;59.27;100226.50;1672730;86;20995;-54
2022/05/18 04:33:47;;;;;;;6.33;2.05;;;;;;;8.78;59.27;100230.35;1672715;86;21010;-54
2022/05/18 04:36:15;;;;;;;4.78;1.87;;;;;;;8.82;59.26;100233.03;1666478;86;21036;-55
2022/05/18 04:38:44;;;;;;;3.77;1.90;;;;;;;8.81;59.24;100228.61;1660507;86;21039;-56
2022/05/18 04:41:12;;;;;;;9.58;2.40;;;;;;;8.86;59.35;100235.19;1660508;86;20987;-55
2022/05/18 04:43:41;;;;;;;4.70;2.35;;;;;;;8.88;59.47;100226.80;1661401;86;20983;-57
2022/05/18 04:46:10;;;;;;;6.03;2.10;;;;;;;8.89;59.69;100237.55;1660385;86;21051;-56
2022/05/18 04:48:40;;;;;;;5.70;2.55;;;;;;;8.86;59.81;100242.55;1660611;86;20976;-56
2022/05/18 04:51:09;;;;;;;6.67;2.65;;;;;;;8.84;59.89;100247.34;1660497;86;21404;-55
2022/05/18 04:53:39;;;;;;;9.90;2.65;;;;;;;8.83;60.01;100247.02;1660507;86;21396;-56
2022/05/18 04:56:09;;;;;;;6.78;2.17;;;;;;;8.86;59.98;100235.19;1660354;86;21007;-55
2022/05/18 04:58:38;;;;;;;6.85;2.80;;;;;;;8.93;60.14;100241.26;1660422;86;21020;-55
2022/05/18 05:01:09;;;;;;;6.28;2.62;;;;;;;8.93;60.20;100238.53;1660572;86;21059;-54
2022/05/18 05:03:38;;;;;;;5.97;2.47;;;;;;;8.93;60.31;100240.73;1660445;86;20979;-55
2022/05/18 05:06:06;;;;;;;9.83;2.77;;;;;;;8.93;60.13;100237.16;1660478;86;20996;-56
2022/05/18 05:08:35;;;;;;;5.28;2.70;;;;;;;8.94;60.08;100241.06;1660438;86;20988;-56
2022/05/18 05:11:05;;;;;;;8.38;3.33;;;;;;;8.97;60.29;100252.14;1660416;86;21023;-59
2022/05/18 05:13:35;;;;;;;11.50;3.08;;;;;;;8.99;60.17;100251.42;1660448;86;21424;-54
2022/05/18 05:16:07;;;;;;;5.35;2.65;;;;;;;8.99;60.16;100247.33;1660435;86;21047;-55
2022/05/18 05:18:35;;;;;;;6.50;2.60;;;;;;;8.99;60.16;100254.16;1660289;86;21028;-54
2022/05/18 05:21:05;;;;;;;7.22;2.65;;;;;;;9.01;60.18;100250.72;1661701;86;21052;-54
2022/05/18 05:23:33;;;;;;;5.80;2.62;;;;;;;9.04;60.39;100255.28;1660360;86;21447;-56
2022/05/18 05:26:02;;;;;;;6.08;2.65;;;;;;;9.01;60.35;100246.09;1660394;86;21063;-55
2022/05/18 05:28:32;;;;;;;6.75;2.72;;;;;;;8.98;60.45;100251.94;1660538;86;21557;-55
2022/05/18 05:31:05;;;;;;;15.45;3.83;;;;;;;8.99;60.55;100257.73;1660805;86;21028;-54
2022/05/18 05:33:39;;;;;;;7.08;3.17;;;;;;;9.02;60.59;100254.63;1639717;86;21447;-54
2022/05/18 05:36:08;;;;;;;8.43;4.05;;;;;;;9.05;60.47;100258.34;1660264;86;21166;-55
2022/05/18 05:38:37;;;;;;;5.90;2.95;;;;;;;9.06;60.53;100262.77;1660478;86;21427;-54
2022/05/18 05:41:05;;;;;;;9.08;3.30;;;;;;;9.12;60.43;100265.28;1660388;86;21019;-55
2022/05/18 05:43:34;;;;;;;11.30;3.37;;;;;;;9.19;60.40;100262.11;1660450;86;21004;-55
2022/05/18 05:46:06;;;;;;;5.42;2.92;;;;;;;9.24;60.29;100260.17;1660412;86;21000;-56
2022/05/18 05:48:36;;;;;;;7.00;2.85;;;;;;;9.23;60.22;100268.04;1660423;86;21024;-53
2022/05/18 05:51:04;;;;;;;9.33;3.30;;;;;;;9.26;60.15;100264.92;1660550;86;20972;-55
2022/05/18 05:53:33;;;;;;;6.95;3.27;;;;;;;9.31;59.98;100268.77;1660518;86;21024;-56
2022/05/18 05:56:07;;;;;;;8.18;3.33;;;;;;;9.32;59.98;100265.52;1660319;86;21071;-62
2022/05/18 05:58:36;;;;;;;7.03;2.72;;;;;;;9.35;60.08;100275.55;1660450;86;20996;-56
2022/05/18 06:01:08;;;;;;;9.70;2.92;;;;;;;9.33;60.20;100265.84;1660390;86;21032;-55
2022/05/18 06:03:37;;;;;;;6.85;2.90;;;;;;;9.28;60.13;100270.52;1660398;86;21015;-56
2022/05/18 06:06:08;;;;;;;16.97;4.20;;;;;;;9.28;60.21;100271.05;1660398;86;21015;-54
2022/05/18 06:08:38;;;;;;;13.13;3.85;;;;;;;9.31;60.42;100284.33;1660630;86;20992;-56
2022/05/18 06:11:09;;;;;;;6.12;2.80;;;;;;;9.33;60.33;100279.52;1660458;86;21016;-54
2022/05/18 06:13:38;;;;;;;11.48;3.37;;;;;;;9.33;60.34;100277.63;1660405;86;21008;-56
2022/05/18 06:16:08;;;;;;;9.65;3.12;;;;;;;9.37;60.40;100276.72;1660418;86;20999;-55
2022/05/18 06:18:38;;;;;;;8.33;2.80;;;;;;;9.41;60.35;100287.08;1660438;86;21036;-55
2022/05/18 06:21:09;;;;;;;4.60;2.40;;;;;;;9.45;60.35;100286.17;1609099;89;20982;-55
2022/05/18 06:23:38;;;;;;;6.58;2.42;;;;;;;9.45;60.35;100281.55;1609130;89;21068;-55
2022/05/18 06:26:07;;;;;;;3.85;1.80;;;;;;;9.46;60.35;100291.45;1609060;89;20994;-56
2022/05/18 06:28:36;;;;;;;6.03;1.67;;;;;;;9.47;60.48;100297.77;1609082;89;21430;-56
2022/05/18 06:31:05;;;;;;;4.37;1.80;;;;;;;9.42;60.51;100290.66;1609102;89;21068;-56
2022/05/18 06:33:35;;;;;;;4.53;1.55;;;;;;;9.35;60.91;100297.42;1609180;89;21010;-55
2022/05/18 06:36:04;;;;;;;19.87;2.80;;;;;;;9.30;61.01;100303.14;1609014;89;21003;-54
2022/05/18 06:38:33;;;;;;;3.22;1.10;;;;;;;9.26;61.09;100306.78;1618583;86;21059;-55
2022/05/18 06:41:21;;;;;;;1.05;0.70;;;;;;;9.26;61.17;100303.20;1660504;86;21094;-58
2022/05/18 06:44:07;;;;;;;2.50;0.85;;;;;;;9.27;61.14;100306.26;1660423;86;21014;-55
2022/05/18 06:46:37;;;;;;;3.62;0.95;;;;;;;9.31;60.87;100311.16;1660400;86;21003;-56
2022/05/18 06:49:07;;;;;;;3.62;1.27;;;;;;;9.32;60.59;100306.01;1660375;86;21007;-56
2022/05/18 06:51:40;;;;;;;3.12;1.27;;;;;;;9.32;60.59;100306.01;1661645;86;20972;-54
2022/05/18 06:54:11;;;;;;;8.40;1.87;;;;;;;9.37;60.73;100310.91;1660436;86;21020;-56
2022/05/18 06:56:42;;;;;;;4.60;1.70;;;;;;;9.43;61.55;100321.07;1660308;86;21424;-56
2022/05/18 06:59:12;;;;;;;3.30;1.67;;;;;;;9.44;61.63;100317.30;1660343;86;21019;-56
2022/05/18 07:01:42;;;;;;;5.62;1.70;;;;;;;9.49;61.85;100316.20;1640145;86;21019;-55
2022/05/18 07:04:11;;;;;;;3.50;1.20;;;;;;;9.45;62.25;100313.52;1661870;86;21022;-55
2022/05/18 07:06:43;;;;;;;7.92;1.45;;;;;;;9.43;62.80;100321.92;1660415;86;20992;-57
2022/05/18 07:09:15;;;;;;;3.25;1.40;;;;;;;9.45;62.90;100319.84;1660495;86;21007;-56
2022/05/18 07:11:46;;;;;;;2.25;1.10;;;;;;;9.50;63.00;100323.36;1660538;86;21031;-55
2022/05/18 07:14:17;;;;;;;3.25;1.50;;;;;;;9.60;64.05;100324.42;1639731;86;21051;-55
2022/05/18 07:16:46;;;;;;;3.22;1.50;;;;;;;9.64;64.52;100333.41;1640068;86;20996;-59
2022/05/18 07:19:15;;;;;;;2.70;1.45;;;;;;;9.64;65.53;100337.52;1661939;86;21044;-55
2022/05/18 07:21:44;;;;;;;2.17;1.30;;;;;;;9.58;65.74;100335.55;1660528;86;21023;-58
2022/05/18 07:24:14;;;;;;;4.85;1.52;;;;;;;9.56;65.76;100330.80;1660439;86;21467;-54
2022/05/18 07:26:42;;;;;;;5.22;1.70;;;;;;;9.50;66.63;100331.56;1660584;86;21427;-54
2022/05/18 07:29:11;;;;;;;4.42;1.70;;;;;;;9.47;66.66;100334.17;1660449;86;21003;-55
2022/05/18 07:34:28;;;;;;;3.62;1.70;;;;;;;9.55;67.37;100341.41;1660537;86;21434;-54
2022/05/18 07:36:57;;;;;;;3.30;1.60;;;;;;;9.59;67.63;100332.30;1660295;86;21080;-56
2022/05/18 07:39:28;;;;;;;3.42;1.52;;;;;;;9.64;67.90;100340.25;1660461;86;21020;-55
2022/05/18 07:41:57;;;;;;;2.25;1.40;;;;;;;9.66;68.13;100341.43;1660428;86;20975;-56
2022/05/18 07:44:26;;;;;;;2.70;1.62;;;;;;;9.70;68.64;100344.95;1660441;86;21032;-55
2022/05/18 07:46:56;;;;;;;6.03;1.72;;;;;;;9.75;68.55;100347.98;1660674;86;21020;-55
2022/05/18 07:49:26;;;;;;;4.65;1.57;;;;;;;9.71;68.67;100350.75;1660549;86;20996;-56
2022/05/18 07:51:55;;;;;;;3.05;1.50;;;;;;;9.72;68.89;100352.97;1660399;86;21031;-54
2022/05/18 07:54:23;;;;;;;4.70;1.57;;;;;;;9.75;69.29;100352.09;1660402;86;21036;-54
2022/05/18 07:56:53;;;;;;;4.10;1.62;;;;;;;9.77;69.75;100358.73;1609183;89;21549;-55
2022/05/18 07:59:22;;;;;;;2.85;1.50;;;;;;;9.76;70.11;100356.52;1609116;89;21047;-54
2022/05/18 08:01:51;;;;;;;3.70;1.60;;;;;;;9.75;70.30;100349.84;1609153;89;21064;-54
2022/05/18 08:04:19;;;;;;;2.75;1.60;;;;;;;9.77;70.70;100351.90;1609362;89;21017;-55
2022/05/18 08:06:49;;;;;;;3.95;1.87;;;;;;;9.76;71.29;100357.89;1609212;89;21536;-55
2022/05/18 08:09:22;;;;;;;3.40;1.70;;;;;;;9.77;72.24;100358.73;1609119;88;21469;-56
2022/05/18 08:17:25;;;;;;;10.53;2.30;;;;;;;9.77;72.42;100358.22;1695608;84;21051;-53
2022/05/18 08:19:54;;;;;;;4.58;2.20;;;;;;;9.81;73.09;100356.79;1697965;83;21011;-55
2022/05/18 08:22:22;;;;;;;6.50;2.90;;;;;;;9.79;74.02;100370.34;1652106;86;21020;-55
2022/05/18 08:24:51;;;;;;;6.00;2.58;;;;;;;9.70;74.98;100374.20;1641583;86;21032;-55
2022/05/18 08:27:19;;;;;;;7.65;2.10;;;;;;;9.61;76.15;100380.83;1628958;88;21013;-55
2022/05/18 08:29:48;;;;;;;3.60;1.80;;;;;;;9.54;77.23;100373.39;1678285;85;21032;-55
2022/05/18 08:32:18;;;;;;;3.90;2.25;;;;;;;9.48;78.56;100378.78;1657681;86;21002;-54
2022/05/18 08:34:46;;;;;;;8.45;2.30;;;;;;;9.44;80.08;100381.05;1684423;85;21484;-55
2022/05/18 08:37:15;;;;;;;5.92;2.00;;;;;;;9.38;81.02;100377.70;1706906;83;21067;-57
2022/05/18 08:39:44;;;;;;;5.20;1.87;;;;;;;9.37;82.29;100382.00;1656607;85;20985;-56
2022/05/18 08:42:12;;;;;;;7.47;2.50;;;;;;;9.32;83.54;100378.98;1690029;85;21027;-57
2022/05/18 08:44:41;;;;;;;8.13;2.12;;;;;;;9.28;85.05;100381.77;1609543;87;21031;-56
2022/05/18 08:47:43;;;;;;;6.70;2.50;;;;;;;9.26;86.32;100379.75;1690090;85;21051;-56
2022/05/18 08:50:18;;;;;;;7.60;2.50;;;;;;;9.25;87.50;100372.58;1689996;85;20991;-57
2022/05/18 08:53:22;;;;;;;10.25;1.95;;;;;;;9.22;88.72;100372.44;1656543;85;21025;-56
2022/05/18 08:56:23;;;;;;;5.12;2.00;;;;;;;9.18;89.59;100365.14;1666119;86;21410;-56
2022/05/18 08:58:53;;;;;;;3.98;1.77;;;;;;;9.15;90.74;100377.82;1666081;86;21068;-57
2022/05/18 09:01:40;;;;;;;5.83;2.70;;;;;;;9.12;91.73;100375.98;1666207;86;21032;-57
2022/05/18 09:04:25;;;;;;;5.00;2.15;;;;;;;9.13;92.54;100378.53;1666097;86;21036;-56
2022/05/18 09:07:07;;;;;;;5.08;2.35;;;;;;;9.20;93.43;100374.52;1666098;86;20989;-57
2022/05/18 09:10:16;;;;;;;3.92;2.02;;;;;;;9.26;94.20;100372.91;1666228;86;21009;-55
2022/05/18 09:12:48;;;;;;;4.35;1.70;;;;;;;9.24;94.67;100377.72;1666114;86;21053;-57
2022/05/18 09:15:44;;;;;;;5.35;2.05;;;;;;;9.14;95.04;100373.39;1666239;86;21001;-55
2022/05/18 09:18:34;;;;;;;6.33;2.10;;;;;;;9.14;95.52;100373.91;1635828;87;21068;-57
2022/05/18 09:21:34;;;;;;;2.70;1.60;;;;;;;9.19;96.12;100385.13;1656991;86;21456;-57
2022/05/18 09:24:11;;;;;;;4.35;1.77;;;;;;;9.24;96.63;100379.09;1666179;86;21017;-56
2022/05/18 09:27:03;;;;;;;4.85;1.67;;;;;;;9.18;96.75;100389.74;1666271;86;21045;-55
2022/05/18 09:29:58;;;;;;;4.55;1.60;;;;;;;9.12;97.01;100391.02;1665366;86;21428;-56
2022/05/18 09:32:59;;;;;;;2.95;1.32;;;;;;;9.09;97.62;100394.94;1665310;86;21019;-57
2022/05/18 09:36:19;;;;;;;4.70;2.10;;;;;;;9.07;98.08;100400.27;1637453;88;21052;-56
2022/05/18 09:39:08;;;;;;;4.55;2.15;;;;;;;9.07;98.79;100401.63;1684882;85;21035;-60
2022/05/18 09:41:47;;;;;;;3.37;2.00;;;;;;;9.04;99.28;100406.96;1690295;85;20976;-58
2022/05/18 09:44:36;;;;;;;4.55;2.17;;;;;;;9.05;99.69;100403.70;1690268;85;21043;-58
2022/05/18 09:47:05;;;;;;;4.20;2.30;;;;;;;9.09;100.00;100407.77;1690259;85;21020;-58
2022/05/18 09:49:54;;;;;;;5.40;2.40;;;;;;;9.14;100.00;100410.30;1690214;85;21436;-57
2022/05/18 09:52:27;;;;;;;3.92;2.20;;;;;;;9.13;100.00;100430.46;1690231;85;21000;-56
2022/05/18 09:54:58;;;;;;;6.35;2.98;;;;;;;9.13;100.00;100430.98;1671073;85;21008;-55
2022/05/18 09:57:57;;;;;;;6.62;2.75;;;;;;;9.08;100.00;100428.78;1657626;86;21016;-55
2022/05/18 10:00:29;;;;;;;5.15;2.83;;;;;;;9.12;100.00;100429.28;1657480;86;21040;-55
2022/05/18 10:08:52;;;;;;;4.95;2.47;;;;;;;9.23;100.00;100432.92;1634911;86;21025;-58
2022/05/18 10:11:34;;;;;;;5.05;3.00;;;;;;;9.34;100.00;100443.38;1657715;86;21011;-56
2022/05/18 10:14:18;;;;;;;9.73;3.27;;;;;;;9.35;100.00;100444.23;1657685;86;21028;-57
2022/05/18 10:16:51;;;;;;;6.42;3.27;;;;;;;9.32;100.00;100441.88;1657559;86;21055;-55
2022/05/18 10:19:26;;;;;;;8.93;4.10;;;;;;;9.33;100.00;100446.30;1652616;86;20988;-55
2022/05/18 10:22:04;;;;;;;9.45;3.72;;;;;;;9.39;100.00;100453.23;1662574;86;21001;-59
2022/05/18 10:24:49;;;;;;;8.80;3.92;;;;;;;9.43;100.00;100446.35;1674126;86;21417;-55
2022/05/18 10:27:26;;;;;;;10.38;5.05;;;;;;;9.50;100.00;100452.77;1671869;86;20989;-56
2022/05/18 10:30:28;;;;;;;8.75;3.77;;;;;;;9.58;100.00;100457.28;1644764;87;21029;-55
2022/05/18 10:33:03;;;;;;;7.60;4.53;;;;;;;9.61;100.00;100452.80;1644714;87;21468;-60
2022/05/18 10:35:39;;;;;;;10.60;4.40;;;;;;;9.60;100.00;100457.94;1644692;87;21027;-56
2022/05/18 10:38:29;;;;;;;9.95;5.17;;;;;;;9.59;100.00;100460.34;1605533;86;21028;-58
2022/05/18 10:41:11;;;;;;;7.78;3.98;;;;;;;9.59;100.00;100464.45;1660120;86;21411;-55
2022/05/18 10:43:56;;;;;;;11.08;4.17;;;;;;;9.60;100.00;100463.93;1660057;86;21404;-56
2022/05/18 10:46:36;;;;;;;9.68;4.87;;;;;;;9.60;100.00;100467.52;1655419;86;21043;-58
2022/05/18 10:49:15;;;;;;;8.28;4.30;;;;;;;9.60;100.00;100471.62;1660078;86;21471;-56
2022/05/18 10:51:45;;;;;;;7.00;4.08;;;;;;;9.58;100.00;100463.27;1659220;86;21017;-55
2022/05/18 10:54:28;;;;;;;11.28;4.72;;;;;;;9.54;100.00;100458.18;1660054;86;21024;-55
2022/05/18 10:57:17;;;;;;;10.65;5.45;;;;;;;9.54;100.00;100462.80;1659823;86;21071;-54
2022/05/18 11:00:05;;;;;;;14.35;5.80;;;;;;;9.49;100.00;100472.09;1659990;86;21068;-56
2022/05/18 11:03:09;;;;;;;13.13;5.28;;;;;;;9.43;100.00;100472.33;1660069;86;21436;-57
2022/05/18 11:06:00;;;;;;;14.85;6.08;;;;;;;9.41;100.00;100474.92;1660517;85;21023;-58
2022/05/18 11:08:31;;;;;;;19.27;7.15;;;;;;;9.36;100.00;100478.74;1689774;85;20980;-57
2022/05/18 11:11:10;;;;;;;15.48;6.53;;;;;;;9.36;100.00;100479.59;1688181;85;20995;-56
2022/05/18 11:14:20;;;;;;;17.27;6.28;;;;;;;9.43;100.00;100486.52;1684253;85;21024;-57
2022/05/18 11:17:19;;;;;;;15.65;5.40;;;;;;;9.50;100.00;100491.57;1687650;85;21423;-57
2022/05/18 11:19:58;;;;;;;13.10;5.28;;;;;;;9.53;100.00;100496.66;1625815;88;20996;-59
2022/05/18 11:23:04;;;;;;;9.23;5.40;;;;;;;9.56;100.00;100500.39;1679404;85;20996;-57
2022/05/18 11:25:48;;;;;;;9.23;4.70;;;;;;;9.53;100.00;100500.25;1647455;85;21000;-56
2022/05/18 11:28:42;;;;;;;12.82;5.10;;;;;;;9.52;100.00;100507.27;1683418;85;21019;-56
2022/05/18 11:31:28;;;;;;;13.35;5.72;;;;;;;9.53;100.00;100511.70;1687829;85;21083;-53
2022/05/18 11:34:23;;;;;;;8.35;4.65;;;;;;;9.51;100.00;100523.36;1687685;85;21007;-55
2022/05/18 11:37:07;;;;;;;12.70;4.78;;;;;;;9.49;100.00;100509.87;1687776;85;21500;-55
2022/05/18 11:39:44;;;;;;;10.58;4.87;;;;;;;9.50;100.00;100520.29;1687884;84;21063;-56
2022/05/18 11:42:43;;;;;;;10.38;4.97;;;;;;;9.54;100.00;100520.24;1687997;85;21044;-55
2022/05/18 11:45:39;;;;;;;10.50;4.85;;;;;;;9.56;100.00;100531.00;1688224;85;21047;-57
2022/05/18 11:48:23;;;;;;;10.38;5.08;;;;;;;9.55;100.00;100532.88;1687928;85;21035;-55
2022/05/18 11:51:06;;;;;;;10.75;4.97;;;;;;;9.57;100.00;100530.81;1687863;85;21047;-59
2022/05/18 11:54:02;;;;;;;10.95;4.53;;;;;;;9.58;100.00;100535.77;1688005;85;21015;-56
2022/05/18 11:56:48;;;;;;;12.47;5.95;;;;;;;9.53;100.00;100540.43;1688032;85;21039;-56
2022/05/18 12:02:53;;;;;;;8.25;4.25;;;;;;;9.52;100.00;100542.31;1688058;85;20999;-57
2022/05/18 12:05:45;;;;;;;5.17;3.42;;;;;;;9.53;100.00;100541.27;1688051;85;21499;-55
2022/05/18 12:08:41;;;;;;;8.00;4.53;;;;;;;9.51;100.00;100540.61;1687884;85;20992;-57
2022/05/18 12:12:05;;;;;;;8.25;3.92;;;;;;;9.49;100.00;100535.84;1688035;84;21343;-57
2022/05/18 12:14:38;;;;;;;8.10;4.22;;;;;;;9.50;100.00;100545.75;1687880;84;21012;-58
2022/05/18 12:17:27;;;;;;;10.88;4.25;;;;;;;9.49;100.00;100548.67;1687992;85;21087;-56
2022/05/18 12:20:01;;;;;;;8.13;4.12;;;;;;;9.49;100.00;100555.52;1688047;85;21023;-56
2022/05/18 12:22:36;;;;;;;7.80;3.58;;;;;;;9.49;100.00;100556.88;1688055;85;21024;-57
2022/05/18 12:25:07;;;;;;;13.85;4.67;;;;;;;9.51;100.00;100565.23;1657022;86;21071;-58